createdAt,value
2022-11-24T00:01:51.369Z,17.30
2022-11-24T00:04:19.258Z,17.30
2022-11-24T00:06:47.108Z,17.30
2022-11-24T00:09:14.938Z,17.30
2022-11-24T00:11:42.782Z,17.30
2022-11-24T00:14:11.238Z,17.40
2022-11-24T00:16:40.671Z,17.50
2022-11-24T00:19:09.564Z,17.60
2022-11-24T00:21:37.676Z,17.50
2022-11-24T00:24:06.202Z,17.50
2022-11-24T00:26:35.349Z,17.50
2022-11-24T00:29:05.088Z,17.50
2022-11-24T00:31:34.326Z,17.50
2022-11-24T00:34:04.438Z,17.40
2022-11-24T00:36:33.242Z,17.40
2022-11-24T00:39:02.064Z,17.40
2022-11-24T00:41:30.151Z,17.30
2022-11-24T00:43:57.995Z,17.30
2022-11-24T00:46:26.380Z,17.30
2022-11-24T00:48:54.718Z,17.30
2022-11-24T00:51:24.766Z,17.30
2022-11-24T00:53:53.107Z,17.30
2022-11-24T00:56:21.076Z,17.30
2022-11-24T00:58:48.945Z,17.40
2022-11-24T01:01:17.869Z,17.50
2022-11-24T01:03:46.672Z,17.50
2022-11-24T01:06:15.519Z,17.50
2022-11-24T01:08:44.730Z,17.40
2022-11-24T01:11:13.526Z,17.40
2022-11-24T01:13:41.675Z,17.40
2022-11-24T01:16:15.318Z,17.40
2022-11-24T01:18:43.530Z,17.40
2022-11-24T01:21:11.551Z,17.40
2022-11-24T01:23:39.413Z,17.30
2022-11-24T01:26:08.907Z,17.30
2022-11-24T01:28:38.570Z,17.30
2022-11-24T01:31:09.969Z,17.40
2022-11-24T01:33:38.031Z,17.50
2022-11-24T01:36:06.866Z,17.50
2022-11-24T01:38:34.722Z,17.50
2022-11-24T01:41:03.845Z,17.40
2022-11-24T01:43:33.136Z,17.40
2022-11-24T01:46:04.587Z,17.50
2022-11-24T01:48:35.664Z,17.40
2022-11-24T01:51:07.412Z,17.40
2022-11-24T01:53:35.435Z,17.40
2022-11-24T01:56:03.511Z,17.30
2022-11-24T01:58:32.929Z,17.30
2022-11-24T02:01:01.227Z,17.30
2022-11-24T02:03:31.361Z,17.30
2022-11-24T02:06:00.508Z,17.30
2022-11-24T02:08:31.375Z,17.30
2022-11-24T02:10:59.270Z,17.30
2022-11-24T02:13:27.348Z,17.30
2022-11-24T02:15:56.605Z,17.40
2022-11-24T02:18:24.693Z,17.50
2022-11-24T02:20:52.614Z,17.50
2022-11-24T02:23:22.380Z,17.50
2022-11-24T02:25:54.393Z,17.50
2022-11-24T02:28:23.857Z,17.50
2022-11-24T02:30:51.986Z,17.50
2022-11-24T02:33:20.806Z,17.50
2022-11-24T02:35:48.751Z,17.50
2022-11-24T02:38:16.649Z,17.40
2022-11-24T02:40:45.821Z,17.40
2022-11-24T02:43:14.779Z,17.30
2022-11-24T02:45:43.993Z,17.30
2022-11-24T02:48:11.875Z,17.30
2022-11-24T02:50:39.773Z,17.30
2022-11-24T02:53:07.654Z,17.30
2022-11-24T02:55:35.541Z,17.30
2022-11-24T02:58:03.435Z,17.20
2022-11-24T03:00:31.389Z,17.30
2022-11-24T03:03:00.662Z,17.40
2022-11-24T03:05:28.737Z,17.40
2022-11-24T03:07:56.648Z,17.40
2022-11-24T03:10:24.560Z,17.40
2022-11-24T03:12:52.459Z,17.40
2022-11-24T03:15:20.316Z,17.40
2022-11-24T03:17:48.197Z,17.40
2022-11-24T03:20:18.760Z,17.40
2022-11-24T03:22:46.639Z,17.40
2022-11-24T03:25:14.557Z,17.30
2022-11-24T03:27:42.436Z,17.30
2022-11-24T03:30:11.889Z,17.30
2022-11-24T03:32:40.048Z,17.40
2022-11-24T03:35:08.676Z,17.50
2022-11-24T03:37:37.888Z,17.50
2022-11-24T03:40:06.759Z,17.50
2022-11-24T03:42:34.644Z,17.40
2022-11-24T03:45:29.787Z,17.40
2022-11-24T03:47:51.604Z,17.40
2022-11-24T03:50:19.599Z,17.40
2022-11-24T03:52:48.825Z,17.40
2022-11-24T03:55:16.740Z,17.40
2022-11-24T03:57:44.625Z,17.30
2022-11-24T04:00:13.382Z,17.30
2022-11-24T04:02:41.470Z,17.30
2022-11-24T04:05:09.831Z,17.40
2022-11-24T04:07:37.832Z,17.50
2022-11-24T04:10:08.082Z,17.50
2022-11-24T04:12:44.210Z,17.50
2022-11-24T04:15:12.470Z,17.40
2022-11-24T04:17:40.360Z,17.40
2022-11-24T04:20:09.440Z,17.40
2022-11-24T04:22:37.371Z,17.40
2022-11-24T04:25:08.200Z,17.40
2022-11-24T04:27:36.705Z,17.30
2022-11-24T04:30:04.824Z,17.30
2022-11-24T04:32:32.874Z,17.30
2022-11-24T04:35:00.800Z,17.30
2022-11-24T04:37:28.873Z,17.30
2022-11-24T04:39:56.778Z,17.30
2022-11-24T04:42:26.020Z,17.20
2022-11-24T04:44:54.030Z,17.20
2022-11-24T04:47:23.050Z,17.20
2022-11-24T04:49:51.135Z,17.30
2022-11-24T04:52:19.484Z,17.20
2022-11-24T04:54:47.518Z,17.30
2022-11-24T04:57:16.444Z,17.30
2022-11-24T04:59:45.656Z,17.20
2022-11-24T05:02:13.584Z,17.20
2022-11-24T05:04:41.563Z,17.30
2022-11-24T05:07:16.585Z,17.40
2022-11-24T05:10:04.241Z,17.50
2022-11-24T05:12:32.274Z,17.60
2022-11-24T05:15:01.881Z,17.50
2022-11-24T05:17:30.376Z,17.50
2022-11-24T05:19:58.365Z,17.50
2022-11-24T05:22:26.892Z,17.50
2022-11-24T05:24:54.922Z,17.50
2022-11-24T05:27:22.846Z,17.50
2022-11-24T05:29:50.751Z,17.40
2022-11-24T05:32:20.208Z,17.40
2022-11-24T05:34:48.211Z,17.40
2022-11-24T05:37:16.096Z,17.40
2022-11-24T05:39:43.993Z,17.40
2022-11-24T05:42:29.555Z,17.40
2022-11-24T05:44:57.912Z,17.30
2022-11-24T05:47:27.333Z,17.30
2022-11-24T05:49:55.219Z,17.30
2022-11-24T05:52:23.151Z,17.40
2022-11-24T05:54:51.035Z,17.50
2022-11-24T05:57:18.898Z,17.60
2022-11-24T05:59:46.811Z,17.60
2022-11-24T06:02:14.770Z,17.50
2022-11-24T06:04:44.121Z,17.50
2022-11-24T06:07:12.599Z,17.50
2022-11-24T06:09:40.917Z,17.50
2022-11-24T06:12:09.002Z,17.50
2022-11-24T06:14:37.201Z,17.40
2022-11-24T06:17:05.499Z,17.40
2022-11-24T06:19:35.493Z,17.40
2022-11-24T06:22:07.919Z,17.40
2022-11-24T06:24:36.198Z,17.40
2022-11-24T06:27:04.378Z,17.40
2022-11-24T06:29:32.273Z,17.30
2022-11-24T06:32:00.277Z,17.30
2022-11-24T06:34:28.319Z,17.30
2022-11-24T06:36:56.231Z,17.30
2022-11-24T06:39:25.798Z,17.40
2022-11-24T06:41:53.811Z,17.50
2022-11-24T06:44:22.584Z,17.60
2022-11-24T06:46:50.485Z,17.50
2022-11-24T06:49:18.394Z,17.50
2022-11-24T06:51:46.285Z,17.50
2022-11-24T06:54:16.124Z,17.50
2022-11-24T06:56:45.371Z,17.50
2022-11-24T06:59:17.336Z,17.40
2022-11-24T07:01:47.727Z,17.40
2022-11-24T07:04:15.930Z,17.40
2022-11-24T07:06:44.021Z,17.40
2022-11-24T07:09:12.404Z,17.40
2022-11-24T07:11:40.442Z,17.40
2022-11-24T07:14:10.030Z,17.40
2022-11-24T07:16:38.018Z,17.40
2022-11-24T07:19:06.149Z,17.30
2022-11-24T07:21:34.040Z,17.30
2022-11-24T07:24:01.957Z,17.30
2022-11-24T07:26:29.831Z,17.30
2022-11-24T07:28:57.742Z,17.30
2022-11-24T07:31:27.103Z,17.30
2022-11-24T07:33:55.763Z,17.30
2022-11-24T07:36:23.841Z,17.30
2022-11-24T07:38:51.815Z,17.30
2022-11-24T07:41:20.349Z,17.50
2022-11-24T07:43:48.354Z,17.60
2022-11-24T07:46:17.324Z,17.70
2022-11-24T07:48:46.637Z,17.60
2022-11-24T07:51:15.533Z,17.60
2022-11-24T07:53:43.464Z,17.60
2022-11-24T07:56:12.534Z,17.60
2022-11-24T07:58:40.451Z,17.60
2022-11-24T08:01:12.860Z,17.50
2022-11-24T08:03:49.814Z,17.50
2022-11-24T08:06:30.027Z,17.40
2022-11-24T08:09:04.424Z,17.40
2022-11-24T08:11:32.915Z,17.40
2022-11-24T08:14:00.991Z,17.40
2022-11-24T08:16:29.013Z,17.40
2022-11-24T08:19:00.851Z,17.40
2022-11-24T08:21:28.870Z,17.40
2022-11-24T08:23:56.929Z,17.40
2022-11-24T08:26:25.489Z,17.40
2022-11-24T08:28:55.038Z,17.40
2022-11-24T08:31:23.104Z,17.40
2022-11-24T08:33:51.015Z,17.30
2022-11-24T08:36:20.484Z,17.30
2022-11-24T08:38:49.427Z,17.30
2022-11-24T08:41:17.730Z,17.40
2022-11-24T08:43:45.635Z,17.50
2022-11-24T08:46:16.875Z,17.60
2022-11-24T08:48:45.154Z,17.70
2022-11-24T08:51:14.195Z,17.60
2022-11-24T08:53:43.752Z,17.60
2022-11-24T08:56:12.140Z,17.60
2022-11-24T08:58:40.160Z,17.60
2022-11-24T09:01:09.034Z,17.60
2022-11-24T09:03:37.568Z,17.50
2022-11-24T09:06:05.801Z,17.50
2022-11-24T09:08:34.044Z,17.50
2022-11-24T09:11:03.859Z,17.50
2022-11-24T09:13:31.924Z,17.50
2022-11-24T09:16:03.827Z,17.40
2022-11-24T09:18:31.761Z,17.40
2022-11-24T09:21:07.915Z,17.40
2022-11-24T09:23:35.961Z,17.40
2022-11-24T09:26:06.528Z,17.40
2022-11-24T09:28:34.597Z,17.50
2022-11-24T09:31:03.053Z,17.60
2022-11-24T09:33:31.397Z,17.60
2022-11-24T09:35:59.480Z,17.60
2022-11-24T09:38:27.605Z,17.50
2022-11-24T09:40:55.834Z,17.50
2022-11-24T09:43:27.517Z,17.50
2022-11-24T09:46:05.577Z,17.50
2022-11-24T09:48:35.976Z,17.50
2022-11-24T09:51:04.357Z,17.40
2022-11-24T09:53:33.454Z,17.40
2022-11-24T09:56:03.859Z,17.40
2022-11-24T09:58:36.777Z,17.40
2022-11-24T10:01:06.627Z,17.40
2022-11-24T10:03:37.138Z,17.40
2022-11-24T10:06:11.172Z,17.40
2022-11-24T10:09:07.376Z,17.30
2022-11-24T10:11:37.980Z,17.40
2022-11-24T10:14:23.639Z,17.50
2022-11-24T10:16:53.578Z,17.60
2022-11-24T10:19:36.327Z,17.60
2022-11-24T10:22:13.371Z,17.60
2022-11-24T10:25:04.658Z,17.50
2022-11-24T10:27:35.780Z,17.50
2022-11-24T10:30:08.999Z,17.50
2022-11-24T10:32:37.831Z,17.50
2022-11-24T10:35:15.572Z,17.50
2022-11-24T10:37:47.073Z,17.40
2022-11-24T10:40:56.113Z,17.40
2022-11-24T10:43:11.003Z,17.40
2022-11-24T10:45:40.624Z,17.40
2022-11-24T10:48:12.355Z,17.40
2022-11-24T10:50:41.864Z,17.40
2022-11-24T10:53:15.653Z,17.30
2022-11-24T10:56:04.439Z,17.30
2022-11-24T10:58:37.762Z,17.50
2022-11-24T11:01:24.756Z,17.50
2022-11-24T11:03:53.387Z,17.60
2022-11-24T11:06:23.049Z,17.50
2022-11-24T11:08:50.934Z,17.50
2022-11-24T11:11:23.672Z,17.50
2022-11-24T11:14:01.551Z,17.50
2022-11-24T11:16:37.132Z,17.50
2022-11-24T11:19:20.161Z,17.50
2022-11-24T11:22:00.711Z,17.40
2022-11-24T11:24:28.604Z,17.40
2022-11-24T11:27:00.946Z,17.40
2022-11-24T11:35:12.375Z,17.30
2022-11-24T11:37:40.266Z,17.30
2022-11-24T11:40:15.686Z,17.30
2022-11-24T11:43:01.931Z,17.40
2022-11-24T11:45:34.719Z,17.50
2022-11-24T11:48:15.091Z,17.60
2022-11-24T11:51:15.118Z,17.80
2022-11-24T11:53:36.876Z,18.00
2022-11-24T11:56:09.994Z,18.20
2022-11-24T11:59:11.588Z,18.30
2022-11-24T12:01:53.371Z,18.50
2022-11-24T12:04:25.712Z,18.60
2022-11-24T12:07:12.956Z,18.70
2022-11-24T12:09:48.694Z,18.80
2022-11-24T12:12:34.469Z,18.80
2022-11-24T12:15:10.516Z,18.70
2022-11-24T12:17:41.033Z,18.50
2022-11-24T12:20:32.452Z,18.40
2022-11-24T12:23:03.554Z,18.20
2022-11-24T12:25:34.802Z,18.10
2022-11-24T12:28:14.468Z,18.10
2022-11-24T12:30:44.422Z,18.00
2022-11-24T12:33:25.296Z,17.90
2022-11-24T12:36:03.481Z,17.80
2022-11-24T12:38:38.669Z,17.80
2022-11-24T12:44:11.229Z,17.70
2022-11-24T12:46:41.642Z,17.60
2022-11-24T12:49:13.798Z,17.60
2022-11-24T12:51:43.953Z,17.60
2022-11-24T12:54:13.486Z,17.70
2022-11-24T12:56:43.727Z,17.80
2022-11-24T12:59:21.316Z,17.90
2022-11-24T13:01:51.884Z,17.90
2022-11-24T13:04:26.969Z,17.80
2022-11-24T13:06:58.452Z,17.80
2022-11-24T13:09:26.336Z,17.80
2022-11-24T13:11:56.738Z,17.80
2022-11-24T13:14:30.568Z,17.70
2022-11-24T13:17:28.789Z,17.70
2022-11-24T13:19:47.288Z,17.60
2022-11-24T13:22:17.901Z,17.60
2022-11-24T13:24:45.905Z,17.60
2022-11-24T13:27:27.721Z,17.60
2022-11-24T13:29:55.727Z,17.50
2022-11-24T13:32:58.499Z,17.50
2022-11-24T13:35:26.412Z,17.50
2022-11-24T13:37:55.627Z,17.50
2022-11-24T13:40:59.823Z,17.60
2022-11-24T13:43:31.494Z,17.70
2022-11-24T13:45:59.457Z,17.70
2022-11-24T13:49:01.166Z,17.70
2022-11-24T13:51:29.267Z,17.70
2022-11-24T13:53:59.929Z,17.60
2022-11-24T13:56:28.082Z,17.60
2022-11-24T13:58:56.959Z,17.60
2022-11-24T14:01:25.264Z,17.50
2022-11-24T14:04:35.745Z,17.50
2022-11-24T14:07:08.359Z,17.50
2022-11-24T14:09:41.352Z,17.50
2022-11-24T14:12:14.199Z,17.50
2022-11-24T14:14:42.194Z,17.50
2022-11-24T14:17:19.236Z,17.40
2022-11-24T14:19:48.368Z,17.40
2022-11-24T14:22:21.037Z,17.50
2022-11-24T14:24:54.606Z,17.60
2022-11-24T14:27:27.337Z,17.70
2022-11-24T14:29:56.295Z,17.70
2022-11-24T14:32:24.401Z,17.70
2022-11-24T14:34:54.851Z,17.60
2022-11-24T14:37:22.801Z,17.60
2022-11-24T14:39:50.684Z,17.60
2022-11-24T14:42:21.489Z,17.60
2022-11-24T14:44:54.128Z,17.50
2022-11-24T14:47:30.446Z,17.50
2022-11-24T14:50:06.599Z,17.40
2022-11-24T14:52:34.583Z,17.50
2022-11-24T14:55:17.615Z,17.50
2022-11-24T14:57:50.928Z,17.40
2022-11-24T15:00:20.367Z,17.40
2022-11-24T15:02:50.002Z,17.40
2022-11-24T15:05:18.112Z,17.40
2022-11-24T15:07:46.731Z,17.50
2022-11-24T15:10:22.729Z,17.60
2022-11-24T15:12:54.629Z,17.70
2022-11-24T15:15:24.263Z,17.70
2022-11-24T15:17:53.588Z,17.60
2022-11-24T15:20:23.643Z,17.60
2022-11-24T15:22:52.372Z,17.60
2022-11-24T15:25:28.187Z,17.60
2022-11-24T15:27:57.816Z,17.50
2022-11-24T15:30:25.745Z,17.50
2022-11-24T15:32:53.812Z,17.50
2022-11-24T15:35:22.690Z,17.50
2022-11-24T15:37:50.704Z,17.50
2022-11-24T15:40:18.718Z,17.50
2022-11-24T15:42:51.782Z,17.50
2022-11-24T15:45:21.395Z,17.40
2022-11-24T15:47:49.707Z,17.40
2022-11-24T15:50:18.088Z,17.40
2022-11-24T15:52:46.093Z,17.40
2022-11-24T15:55:17.243Z,17.60
2022-11-24T15:57:45.169Z,17.60
2022-11-24T16:00:17.814Z,17.70
2022-11-24T16:02:47.084Z,17.60
2022-11-24T16:05:15.240Z,17.60
2022-11-24T16:07:43.388Z,17.60
2022-11-24T16:10:17.589Z,17.60
2022-11-24T16:12:45.485Z,17.50
2022-11-24T16:15:13.435Z,17.50
2022-11-24T16:17:41.327Z,17.50
2022-11-24T16:20:12.004Z,17.50
2022-11-24T16:22:39.913Z,17.40
2022-11-24T16:25:08.325Z,17.40
2022-11-24T16:27:36.207Z,17.40
2022-11-24T16:30:04.384Z,17.40
2022-11-24T16:32:32.280Z,17.40
2022-11-24T16:35:00.152Z,17.40
2022-11-24T16:37:29.369Z,17.40
2022-11-24T16:39:58.325Z,17.50
2022-11-24T16:42:26.312Z,17.60
2022-11-24T16:44:54.228Z,17.60
2022-11-24T16:47:22.217Z,17.60
2022-11-24T16:49:50.113Z,17.60
2022-11-24T16:52:18.166Z,17.60
2022-11-24T16:54:47.962Z,17.60
2022-11-24T16:57:15.858Z,17.50
2022-11-24T16:59:45.849Z,17.60
2022-11-24T17:02:13.904Z,17.50
2022-11-24T17:04:41.939Z,17.50
2022-11-24T17:07:09.975Z,17.50
2022-11-24T17:09:40.779Z,17.60
2022-11-24T17:12:10.220Z,17.60
2022-11-24T17:14:38.160Z,17.60
2022-11-24T17:17:06.100Z,17.60
2022-11-24T17:19:33.989Z,17.60
2022-11-24T17:22:01.852Z,17.60
2022-11-24T17:24:29.864Z,17.60
2022-11-24T17:26:57.923Z,17.80
2022-11-24T17:29:27.639Z,17.80
2022-11-24T17:31:55.714Z,17.80
2022-11-24T17:34:23.641Z,17.80
2022-11-24T17:36:51.597Z,17.80
2022-11-24T17:39:23.358Z,17.80
2022-11-24T17:41:53.038Z,17.80
2022-11-24T17:44:21.088Z,17.70
2022-11-24T17:46:50.345Z,17.70
2022-11-24T17:49:18.434Z,17.70
2022-11-24T17:51:50.362Z,17.70
2022-11-24T17:57:06.479Z,17.70
2022-11-24T17:59:34.381Z,17.60
2022-11-24T18:02:03.669Z,17.60
2022-11-24T18:04:31.625Z,17.60
2022-11-24T18:06:59.677Z,17.50
2022-11-24T18:09:27.576Z,17.60
2022-11-24T18:11:55.502Z,17.70
2022-11-24T18:14:23.383Z,17.70
2022-11-24T18:16:51.553Z,17.70
2022-11-24T18:19:20.867Z,17.70
2022-11-24T18:21:48.964Z,17.60
2022-11-24T18:24:21.115Z,17.60
2022-11-24T18:26:51.925Z,17.60
2022-11-24T18:29:19.808Z,17.60
2022-11-24T18:31:47.764Z,17.60
2022-11-24T18:34:15.746Z,17.60
2022-11-24T18:36:47.393Z,17.60
2022-11-24T18:39:17.857Z,17.60
2022-11-24T18:41:45.779Z,17.70
2022-11-24T18:44:13.767Z,17.70
2022-11-24T18:46:41.728Z,17.80
2022-11-24T18:49:09.831Z,17.70
2022-11-24T18:51:37.758Z,17.70
2022-11-24T18:54:07.239Z,17.70
2022-11-24T18:56:35.132Z,17.70
2022-11-24T18:59:03.033Z,17.70
2022-11-24T19:01:32.102Z,17.60
2022-11-24T19:04:00.771Z,17.50
2022-11-24T19:06:32.100Z,17.50
2022-11-24T19:09:00.900Z,17.50
2022-11-24T19:11:32.315Z,17.60
2022-11-24T19:14:00.209Z,17.70
2022-11-24T19:16:28.156Z,17.70
2022-11-24T19:18:57.224Z,17.70
2022-11-24T19:21:25.233Z,17.60
2022-11-24T19:23:53.222Z,17.60
2022-11-24T19:26:21.122Z,17.60
2022-11-24T19:28:50.482Z,17.60
2022-11-24T19:31:19.211Z,17.60
2022-11-24T19:33:47.439Z,17.50
2022-11-24T19:36:16.319Z,17.50
2022-11-24T19:38:44.500Z,17.50
2022-11-24T19:41:13.020Z,17.50
2022-11-24T19:43:41.100Z,17.50
2022-11-24T19:46:11.377Z,17.50
2022-11-24T19:48:40.707Z,17.50
2022-11-24T19:51:09.311Z,17.50
2022-11-24T19:53:37.881Z,17.50
2022-11-24T19:56:06.337Z,17.60
2022-11-24T19:58:34.337Z,17.70
2022-11-24T20:01:07.477Z,17.80
2022-11-24T20:03:36.848Z,17.80
2022-11-24T20:06:05.035Z,17.80
2022-11-24T20:08:34.159Z,17.70
2022-11-24T20:11:05.571Z,17.70
2022-11-24T20:13:34.580Z,17.70
2022-11-24T20:16:05.477Z,17.70
2022-11-24T20:18:37.544Z,17.60
2022-11-24T20:21:11.436Z,17.60
2022-11-24T20:23:39.443Z,17.60
2022-11-24T20:26:08.176Z,17.60
2022-11-24T20:28:36.273Z,17.60
2022-11-24T20:31:04.330Z,17.60
2022-11-24T20:33:32.208Z,17.50
2022-11-24T20:36:04.689Z,17.50
2022-11-24T20:38:34.402Z,17.50
2022-11-24T20:41:08.736Z,17.60
2022-11-24T20:43:37.434Z,17.70
2022-11-24T20:46:05.704Z,17.70
2022-11-24T20:48:34.309Z,17.80
2022-11-24T20:51:04.410Z,17.70
2022-11-24T20:53:33.708Z,17.70
2022-11-24T20:56:06.084Z,17.70
2022-11-24T20:58:34.993Z,17.70
2022-11-24T21:01:07.037Z,17.60
2022-11-24T21:03:38.419Z,17.60
2022-11-24T21:06:10.593Z,17.60
2022-11-24T21:08:40.402Z,17.60
2022-11-24T21:11:09.140Z,17.60
2022-11-24T21:13:37.325Z,17.60
2022-11-24T21:16:12.672Z,17.60
2022-11-24T21:18:40.645Z,17.50
2022-11-24T21:21:08.545Z,17.50
2022-11-24T21:23:36.468Z,17.50
2022-11-24T21:26:11.513Z,17.60
2022-11-24T21:28:42.976Z,17.70
2022-11-24T21:31:12.402Z,17.70
2022-11-24T21:33:44.823Z,17.70
2022-11-24T21:36:12.773Z,17.70
2022-11-24T21:38:40.696Z,17.70
2022-11-24T21:41:10.265Z,17.70
2022-11-24T21:43:38.543Z,17.70
2022-11-24T21:46:07.945Z,17.60
2022-11-24T21:48:36.520Z,17.60
2022-11-24T21:51:05.874Z,17.60
2022-11-24T21:53:34.880Z,17.50
2022-11-24T21:56:05.078Z,17.50
2022-11-24T21:58:34.353Z,17.60
2022-11-24T22:01:02.893Z,17.50
2022-11-24T22:03:31.023Z,17.50
2022-11-24T22:05:59.647Z,17.50
2022-11-24T22:08:28.775Z,17.50
2022-11-24T22:11:01.366Z,17.50
2022-11-24T22:13:29.257Z,17.60
2022-11-24T22:16:02.990Z,17.70
2022-11-24T22:18:32.977Z,17.80
2022-11-24T22:21:02.636Z,17.80
2022-11-24T22:23:30.964Z,17.70
2022-11-24T22:26:03.746Z,17.70
2022-11-24T22:28:33.110Z,17.70
2022-11-24T22:31:05.822Z,17.70
2022-11-24T22:33:33.795Z,17.60
2022-11-24T22:36:01.933Z,17.60
2022-11-24T22:38:30.048Z,17.60
2022-11-24T22:41:02.221Z,17.50
2022-11-24T22:43:32.121Z,17.50
2022-11-24T22:46:05.196Z,17.50
2022-11-24T22:48:33.261Z,17.50
2022-11-24T22:51:05.222Z,17.50
2022-11-24T22:53:33.164Z,17.50
2022-11-24T22:56:04.386Z,17.50
2022-11-24T22:58:32.872Z,17.50
2022-11-24T23:01:06.354Z,17.50
2022-11-24T23:03:34.722Z,17.50
2022-11-24T23:06:02.698Z,17.50
2022-11-24T23:08:31.049Z,17.50
2022-11-24T23:11:02.381Z,17.50
2022-11-24T23:13:30.343Z,17.50
2022-11-24T23:16:02.434Z,17.60
2022-11-24T23:18:31.798Z,17.70
2022-11-24T23:21:05.594Z,17.80
2022-11-24T23:23:33.603Z,17.70
2022-11-24T23:26:01.952Z,17.70
2022-11-24T23:28:29.918Z,17.70
2022-11-24T23:31:01.586Z,17.70
2022-11-24T23:33:30.877Z,17.60
2022-11-24T23:36:01.062Z,17.60
2022-11-24T23:38:30.161Z,17.60
2022-11-24T23:40:58.086Z,17.50
2022-11-24T23:43:25.992Z,17.50
2022-11-24T23:45:54.318Z,17.50
2022-11-24T23:48:22.265Z,17.50
2022-11-24T23:50:51.541Z,17.50
2022-11-24T23:53:19.429Z,17.50
2022-11-24T23:55:54.004Z,17.50
2022-11-24T23:58:21.997Z,17.50
